Time;durP1;ratioP1;P1;durP2;ratioP2;P2;SDS_P1;SDS_P2;PMS_P1;PMS_P2;Temp;Humidity;BMP_temperature;BMP_pressure;BME280_temperature;BME280_humidity;BME280_pressure;Samples;Min_cycle;Max_cycle;Signal;HPM_P1;HPM_P2
2022/12/06 00:01:12;;;;;;;16.87;9.77;;;;;;;7.10;82.40;100010.00;4447352;32;33760;-78
2022/12/06 00:03:41;;;;;;;18.05;10.65;;;;;;;6.80;83.71;100022.47;4453488;32;34743;-78
2022/12/06 00:06:17;;;;;;;16.15;9.50;;;;;;;7.48;80.69;100019.87;4461928;32;34656;-77
2022/12/06 00:08:46;;;;;;;16.52;10.07;;;;;;;7.25;80.58;100016.97;4454555;32;33757;-77
2022/12/06 00:11:22;;;;;;;15.90;9.52;;;;;;;6.72;83.40;100026.28;4468454;32;34400;-77
2022/12/06 00:13:54;;;;;;;16.10;9.90;;;;;;;6.78;82.85;100023.53;4455129;32;34658;-78
2022/12/06 00:16:22;;;;;;;16.10;10.00;;;;;;;6.23;86.25;100015.09;4456840;32;33551;-78
2022/12/06 00:18:50;;;;;;;17.67;9.98;;;;;;;6.62;85.01;100007.84;4455317;32;34124;-77
2022/12/06 00:21:27;;;;;;;17.87;10.95;;;;;;;6.55;85.35;99986.31;4454709;32;33547;-79
2022/12/06 00:24:03;;;;;;;16.95;10.45;;;;;;;6.29;86.73;99973.00;4471069;32;34019;-79
2022/12/06 00:26:30;;;;;;;20.10;11.10;;;;;;;6.13;88.04;99964.38;4468501;32;34394;-79
2022/12/06 00:29:02;;;;;;;20.88;11.02;;;;;;;6.20;88.23;99963.50;4469732;32;32447;-80
2022/12/06 00:31:30;;;;;;;20.12;10.90;;;;;;;6.15;89.50;99967.69;4463628;32;34586;-78
2022/12/06 00:33:57;;;;;;;18.65;10.55;;;;;;;6.18;89.36;99979.03;4470185;32;34913;-77
2022/12/06 00:36:27;;;;;;;20.27;11.30;;;;;;;6.42;88.24;99970.25;4454292;32;34355;-78
2022/12/06 00:38:58;;;;;;;20.58;10.98;;;;;;;6.13;88.67;99967.06;4456940;32;33564;-79
2022/12/06 00:41:26;;;;;;;19.15;11.52;;;;;;;6.39;88.10;99961.75;4454316;32;33495;-78
2022/12/06 00:43:54;;;;;;;18.40;10.55;;;;;;;6.22;88.87;99969.50;4454465;32;33479;-80
2022/12/06 00:46:26;;;;;;;18.30;10.80;;;;;;;6.46;87.29;99967.94;4450333;32;34830;-77
2022/12/06 00:48:55;;;;;;;17.08;10.02;;;;;;;6.12;88.79;99959.19;4460140;32;34067;-78
2022/12/06 00:51:24;;;;;;;18.67;10.13;;;;;;;6.01;89.23;99957.19;4454262;32;33473;-79
2022/12/06 00:53:51;;;;;;;16.75;9.23;;;;;;;6.28;87.80;99957.88;4454278;32;33999;-78
2022/12/06 00:56:19;;;;;;;17.05;9.68;;;;;;;5.92;88.43;99943.91;4441384;32;32630;-79
2022/12/06 00:58:46;;;;;;;16.55;9.27;;;;;;;6.05;88.03;99947.63;4469514;32;33986;-78
2022/12/06 01:01:16;;;;;;;19.52;10.32;;;;;;;5.69;90.39;99946.28;4463092;32;33390;-78
2022/12/06 01:03:44;;;;;;;19.98;11.45;;;;;;;5.78;90.05;99934.22;4441200;32;34380;-78
2022/12/06 01:06:14;;;;;;;18.83;10.40;;;;;;;5.91;89.12;99939.56;4449949;32;34177;-77
2022/12/06 01:08:42;;;;;;;17.67;10.02;;;;;;;5.96;89.29;99936.25;4466768;32;34032;-80
2022/12/06 01:11:10;;;;;;;21.42;10.75;;;;;;;6.34;87.35;99936.28;4455315;32;33655;-78
2022/12/06 01:13:38;;;;;;;22.80;10.88;;;;;;;6.32;87.17;99926.75;4451688;32;33688;-79
2022/12/06 01:16:06;;;;;;;20.95;11.27;;;;;;;6.35;87.96;99924.47;4467626;32;34121;-78
2022/12/06 01:18:34;;;;;;;22.13;12.10;;;;;;;6.44;87.68;99905.34;4454967;32;33974;-77
2022/12/06 01:21:21;;;;;;;23.67;12.52;;;;;;;6.26;88.21;99895.28;4460351;32;33413;-81
2022/12/06 01:23:48;;;;;;;22.90;13.00;;;;;;;6.00;90.95;99897.09;4467981;32;33792;-80
2022/12/06 01:26:28;;;;;;;24.20;13.70;;;;;;;5.71;92.86;99879.59;4466318;32;34967;-79
2022/12/06 01:28:57;;;;;;;20.58;11.52;;;;;;;5.81;90.99;99860.28;4453157;32;33168;-82
2022/12/06 01:31:25;;;;;;;21.55;11.95;;;;;;;5.76;91.45;99866.31;4453944;32;33594;-77
2022/12/06 01:33:53;;;;;;;19.42;11.18;;;;;;;5.74;91.77;99861.16;4454247;32;33950;-79
2022/12/06 01:36:22;;;;;;;21.25;11.20;;;;;;;5.72;91.29;99865.09;4467977;32;33785;-77
2022/12/06 01:38:51;;;;;;;18.73;10.23;;;;;;;5.91;90.01;99861.47;4456407;32;33527;-80
2022/12/06 01:41:20;;;;;;;18.85;10.75;;;;;;;5.85;90.83;99848.87;4467933;32;33651;-78
2022/12/06 01:43:48;;;;;;;20.95;10.60;;;;;;;5.99;89.52;99848.84;4466870;32;35740;-77
2022/12/06 01:46:29;;;;;;;19.02;10.63;;;;;;;5.80;90.18;99847.87;4440993;32;32541;-78
2022/12/06 01:49:18;;;;;;;23.05;11.55;;;;;;;5.93;89.73;99856.69;4446974;32;34883;-80
2022/12/06 01:51:49;;;;;;;19.35;11.12;;;;;;;5.52;91.57;99871.37;4451729;32;32025;-80
2022/12/06 01:54:18;;;;;;;18.35;10.23;;;;;;;5.93;89.97;99898.97;4456372;32;33866;-82
2022/12/06 01:56:47;;;;;;;16.62;10.02;;;;;;;6.64;86.30;99938.38;4452647;32;33642;-81
2022/12/06 01:59:15;;;;;;;17.42;9.68;;;;;;;6.59;85.39;99962.47;4453321;32;33633;-80
2022/12/06 02:01:42;;;;;;;17.30;9.20;;;;;;;6.34;86.92;99954.31;4464841;32;33664;-79
2022/12/06 02:04:10;;;;;;;17.02;10.00;;;;;;;6.48;85.94;99928.09;4456350;32;34794;-79
2022/12/06 02:06:38;;;;;;;16.95;10.18;;;;;;;6.74;84.47;99925.22;4457809;32;35069;-81
2022/12/06 02:09:08;;;;;;;17.75;9.98;;;;;;;6.74;83.87;99914.44;4470201;32;34171;-79
2022/12/06 02:11:36;;;;;;;17.62;9.70;;;;;;;6.97;83.48;99921.09;4453762;32;34432;-78
2022/12/06 02:14:07;;;;;;;16.23;9.32;;;;;;;6.65;84.47;99929.25;4453073;32;33464;-74
2022/12/06 02:16:49;;;;;;;17.95;10.27;;;;;;;6.55;85.44;99935.09;4465943;32;34284;-74
2022/12/06 02:19:50;;;;;;;16.62;10.00;;;;;;;6.61;84.35;99933.41;4466136;32;34648;-77
2022/12/06 02:22:22;;;;;;;19.77;10.40;;;;;;;6.81;83.65;99927.88;4417571;32;33336;-80
2022/12/06 02:25:12;;;;;;;18.85;10.85;;;;;;;7.07;82.43;99936.78;4467215;32;33498;-79
2022/12/06 02:28:01;;;;;;;17.17;9.57;;;;;;;6.72;83.91;99937.28;4434144;32;34085;-78
2022/12/06 02:30:35;;;;;;;17.73;9.60;;;;;;;6.90;83.20;99936.50;4448752;32;33911;-78
2022/12/06 02:33:06;;;;;;;15.52;8.98;;;;;;;7.66;79.96;99945.34;4469466;32;33604;-81
2022/12/06 02:35:37;;;;;;;16.00;9.13;;;;;;;7.54;79.79;99956.88;4456693;32;34039;-81
2022/12/06 02:38:19;;;;;;;14.23;8.80;;;;;;;7.85;78.24;99967.78;4472158;32;34217;-78
2022/12/06 02:40:56;;;;;;;14.38;8.98;;;;;;;7.55;78.99;99944.22;4443721;32;34585;-79
2022/12/06 02:43:28;;;;;;;15.52;9.43;;;;;;;7.25;80.58;99917.09;4457524;32;33325;-78
2022/12/06 02:45:58;;;;;;;18.52;9.73;;;;;;;7.13;80.34;99909.75;4457472;32;34097;-79
2022/12/06 02:48:25;;;;;;;17.30;9.82;;;;;;;6.67;81.98;99897.47;4455929;32;34014;-79
2022/12/06 02:50:59;;;;;;;16.42;9.05;;;;;;;6.55;83.71;99883.06;4458552;32;34657;-78
2022/12/06 02:53:28;;;;;;;17.73;10.15;;;;;;;6.37;84.54;99883.81;4471361;32;33418;-82
2022/12/06 02:55:56;;;;;;;17.67;9.95;;;;;;;6.34;85.11;99892.34;4455504;32;34804;-78
2022/12/06 02:58:23;;;;;;;16.83;9.70;;;;;;;6.30;86.45;99893.81;4469691;32;34225;-78
2022/12/06 03:00:58;;;;;;;17.77;9.50;;;;;;;6.47;85.29;99872.56;4471783;32;34130;-78
2022/12/06 03:03:48;;;;;;;17.73;10.02;;;;;;;6.48;85.16;99863.41;4457052;32;33746;-78
2022/12/06 03:06:54;;;;;;;18.65;10.48;;;;;;;6.43;85.04;99861.38;4454463;32;33543;-81
2022/12/06 03:09:35;;;;;;;19.98;10.80;;;;;;;5.53;90.21;99837.25;4467852;32;33802;-79
2022/12/06 03:12:14;;;;;;;18.90;11.00;;;;;;;5.71;90.09;99837.34;4457312;32;34254;-79
2022/12/06 03:15:00;;;;;;;20.65;11.65;;;;;;;5.56;90.72;99828.72;4469656;32;33487;-79
2022/12/06 03:17:37;;;;;;;21.75;11.55;;;;;;;5.87;89.48;99821.72;4457069;32;34093;-77
2022/12/06 03:20:13;;;;;;;19.15;11.38;;;;;;;5.57;91.73;99830.38;4472557;32;33930;-76
2022/12/06 03:22:45;;;;;;;23.15;11.65;;;;;;;5.81;89.71;99828.81;4452319;32;33967;-76
2022/12/06 03:25:12;;;;;;;22.77;11.77;;;;;;;5.79;90.05;99811.22;4451354;32;33089;-77
2022/12/06 03:27:41;;;;;;;22.13;11.20;;;;;;;5.89;89.02;99806.19;4453253;32;34552;-79
2022/12/06 03:30:10;;;;;;;20.37;11.35;;;;;;;5.67;90.18;99808.38;4438707;32;33423;-78
2022/12/06 03:32:40;;;;;;;19.27;10.55;;;;;;;5.63;89.56;99813.38;4453213;32;33944;-81
2022/12/06 03:35:11;;;;;;;19.75;11.57;;;;;;;5.74;89.68;99834.25;4453031;32;34355;-77
2022/12/06 03:37:40;;;;;;;19.08;11.23;;;;;;;5.75;89.46;99811.66;4452899;32;34822;-78
2022/12/06 03:40:12;;;;;;;19.75;11.40;;;;;;;5.70;89.89;99813.31;4453026;32;34244;-78
2022/12/06 03:42:40;;;;;;;21.62;11.95;;;;;;;5.72;90.65;99809.41;4467228;32;34392;-78
2022/12/06 03:45:09;;;;;;;19.42;10.60;;;;;;;5.66;89.47;99817.47;4447523;32;33547;-79
2022/12/06 03:47:51;;;;;;;19.15;10.90;;;;;;;6.03;87.92;99812.34;4455353;32;33788;-80
2022/12/06 03:50:28;;;;;;;18.00;11.02;;;;;;;5.61;89.25;99803.84;4447930;32;34225;-77
2022/12/06 03:52:56;;;;;;;21.60;11.50;;;;;;;5.56;89.14;99807.19;4447671;32;33663;-78
2022/12/06 03:55:24;;;;;;;22.80;12.07;;;;;;;5.28;91.45;99799.44;4467123;32;33781;-78
2022/12/06 03:57:51;;;;;;;18.23;10.82;;;;;;;4.88;93.73;99786.13;4466834;32;34003;-79
2022/12/06 04:00:19;;;;;;;18.10;10.85;;;;;;;5.01;93.49;99796.00;4445661;32;34304;-77
2022/12/06 04:02:46;;;;;;;21.48;10.85;;;;;;;5.37;91.32;99800.84;4462544;32;34488;-78
2022/12/06 04:05:14;;;;;;;20.00;11.45;;;;;;;5.12;93.06;99798.88;4453056;32;33509;-77
2022/12/06 04:07:41;;;;;;;21.48;10.98;;;;;;;5.19;92.63;99798.88;4468974;32;33944;-77
2022/12/06 04:10:09;;;;;;;20.52;11.05;;;;;;;5.03;93.09;99818.13;4452850;32;35069;-77
2022/12/06 04:15:22;;;;;;;19.30;10.90;;;;;;;5.87;89.21;99875.56;4453395;32;33517;-79
2022/12/06 04:23:29;;;;;;;17.83;9.95;;;;;;;6.49;85.42;99876.69;4467655;32;33748;-80
2022/12/06 04:25:57;;;;;;;16.25;9.30;;;;;;;6.35;86.30;99869.75;4456137;32;33469;-77
2022/12/06 04:39:29;;;;;;;17.17;9.07;;;;;;;7.15;80.61;99855.56;4458355;32;33851;-78
2022/12/06 04:44:42;;;;;;;14.35;8.88;;;;;;;6.75;82.79;99859.47;4468650;32;33757;-79
2022/12/06 04:47:10;;;;;;;16.83;9.38;;;;;;;6.70;81.63;99858.50;4468766;32;34645;-76
2022/12/06 04:49:38;;;;;;;13.88;8.57;;;;;;;6.55;83.49;99856.94;4454824;32;33591;-77
2022/12/06 04:52:07;;;;;;;14.15;8.93;;;;;;;6.90;81.92;99852.91;4454633;32;33728;-80
2022/12/06 04:54:35;;;;;;;14.45;8.88;;;;;;;6.50;83.55;99855.94;4458110;32;33600;-80
2022/12/06 04:57:03;;;;;;;14.82;9.15;;;;;;;6.94;81.44;99852.22;4471591;32;33634;-76
2022/12/06 04:59:30;;;;;;;20.23;11.60;;;;;;;6.84;81.09;99846.50;4472206;32;34717;-80
2022/12/06 05:01:58;;;;;;;17.25;9.48;;;;;;;7.11;79.70;99839.00;4472690;32;34078;-77
2022/12/06 05:04:25;;;;;;;16.90;10.18;;;;;;;6.95;80.56;99836.88;4456702;32;34532;-79
2022/12/06 05:06:52;;;;;;;17.20;9.63;;;;;;;6.85;80.89;99831.19;4470619;32;34553;-78
2022/12/06 05:09:20;;;;;;;16.73;10.20;;;;;;;6.93;81.27;99839.81;4469736;32;34075;-77
2022/12/06 05:11:47;;;;;;;16.10;10.02;;;;;;;7.23;79.75;99854.44;4472520;31;34946;-77
2022/12/06 05:14:15;;;;;;;18.73;10.85;;;;;;;6.99;81.00;99848.87;4472216;32;34641;-78
2022/12/06 05:16:43;;;;;;;18.25;10.73;;;;;;;6.58;82.84;99845.69;4472086;32;34173;-78
2022/12/06 05:19:12;;;;;;;19.50;10.65;;;;;;;6.72;81.57;99843.72;4464747;32;34780;-76
2022/12/06 05:21:39;;;;;;;17.55;10.70;;;;;;;7.04;80.64;99846.34;4468941;32;35209;-78
2022/12/06 05:24:07;;;;;;;14.93;9.73;;;;;;;7.39;79.06;99849.28;4465824;32;34785;-78
2022/12/06 05:26:35;;;;;;;20.35;11.32;;;;;;;7.48;78.01;99860.59;4465240;32;33044;-80
2022/12/06 05:29:02;;;;;;;17.12;10.50;;;;;;;6.94;80.83;99852.22;4453207;32;33952;-81
2022/12/06 05:31:30;;;;;;;15.32;9.93;;;;;;;6.82;80.78;99845.09;4466441;32;35101;-81
2022/12/06 05:33:57;;;;;;;17.30;10.43;;;;;;;6.96;80.70;99852.03;4465132;32;35328;-82
2022/12/06 05:36:26;;;;;;;14.85;9.15;;;;;;;7.24;79.33;99845.31;4465889;32;34554;-80
2022/12/06 05:38:55;;;;;;;16.05;9.27;;;;;;;7.32;78.53;99832.34;4453519;32;33545;-78
2022/12/06 05:41:23;;;;;;;14.20;9.02;;;;;;;6.99;80.03;99835.38;4453935;32;35135;-78
2022/12/06 05:43:50;;;;;;;16.42;9.35;;;;;;;7.15;78.89;99842.06;4469985;32;33570;-77
2022/12/06 05:46:18;;;;;;;14.55;9.00;;;;;;;6.95;79.82;99844.97;4472685;32;33309;-81
2022/12/06 05:48:45;;;;;;;13.30;8.40;;;;;;;7.31;78.33;99856.84;4441420;32;33291;-80
2022/12/06 05:51:13;;;;;;;15.95;9.70;;;;;;;7.77;76.01;99861.66;4453560;32;34174;-80
2022/12/06 05:53:40;;;;;;;15.43;9.35;;;;;;;7.39;77.43;99856.53;4453526;32;34694;-79
2022/12/06 05:56:10;;;;;;;18.08;11.20;;;;;;;7.40;78.17;99855.47;4465187;32;33431;-89
2022/12/06 05:58:38;;;;;;;15.77;9.70;;;;;;;7.48;76.84;99841.69;4469292;32;34678;-74
2022/12/06 06:01:07;;;;;;;15.70;9.90;;;;;;;7.27;77.40;99851.06;4456060;32;35047;-79
2022/12/06 06:03:34;;;;;;;22.80;12.27;;;;;;;7.07;78.34;99845.88;4452860;32;33814;-77
2022/12/06 06:06:02;;;;;;;17.85;11.20;;;;;;;7.40;77.03;99831.19;4456281;32;33653;-82
2022/12/06 06:08:30;;;;;;;16.25;8.98;;;;;;;7.52;76.79;99839.38;4456563;32;33752;-81
2022/12/06 06:10:58;;;;;;;13.80;8.63;;;;;;;7.67;76.21;99849.78;4455924;32;34205;-81
2022/12/06 06:13:26;;;;;;;13.43;9.23;;;;;;;7.64;76.02;99842.13;4468474;32;33928;-78
2022/12/06 06:15:53;;;;;;;16.27;9.80;;;;;;;6.85;79.08;99826.59;4442729;32;89979;-81
2022/12/06 06:18:21;;;;;;;13.98;8.68;;;;;;;6.48;81.56;99815.75;4453174;32;33956;-81
2022/12/06 06:20:58;;;;;;;12.60;8.18;;;;;;;6.80;80.29;99810.25;4463045;32;33835;-75
2022/12/06 06:23:27;;;;;;;13.40;8.75;;;;;;;7.00;79.69;99810.06;4468572;32;34241;-79
2022/12/06 06:25:54;;;;;;;15.98;9.68;;;;;;;7.48;78.03;99820.09;4468763;32;34015;-78
2022/12/06 06:28:22;;;;;;;12.05;9.00;;;;;;;7.73;76.21;99822.69;4468883;32;34647;-77
2022/12/06 06:30:49;;;;;;;15.02;9.80;;;;;;;7.37;77.40;99818.97;4425531;32;34438;-77
2022/12/06 06:33:17;;;;;;;14.45;8.85;;;;;;;6.78;79.88;99806.94;4449284;32;33871;-76
2022/12/06 06:35:44;;;;;;;13.48;8.95;;;;;;;6.74;80.40;99800.38;4437837;32;34211;-77
2022/12/06 06:38:12;;;;;;;13.30;8.80;;;;;;;7.14;78.96;99799.94;4437353;32;33929;-77
2022/12/06 06:40:39;;;;;;;11.75;7.95;;;;;;;7.17;78.78;99803.03;4437899;32;34303;-77
2022/12/06 06:43:19;;;;;;;11.93;8.32;;;;;;;7.28;78.40;99806.84;4437838;32;34883;-77
2022/12/06 06:45:52;;;;;;;13.35;8.73;;;;;;;7.19;78.82;99809.03;4436694;32;33140;-76
2022/12/06 06:48:20;;;;;;;12.37;8.15;;;;;;;6.98;79.75;99817.56;4423794;32;34154;-77
2022/12/06 06:50:48;;;;;;;16.58;9.48;;;;;;;7.27;78.72;99807.06;4437816;32;34216;-78
2022/12/06 06:53:23;;;;;;;;;;;;;;;6.82;80.41;99804.63;4448827;32;33507;-77
2022/12/06 06:55:52;;;;;;;13.40;8.55;;;;;;;7.51;77.89;99802.59;4458114;32;34207;-76
2022/12/06 06:58:20;;;;;;;14.57;9.23;;;;;;;7.25;78.74;99809.16;4452852;32;33843;-82
2022/12/06 07:00:58;;;;;;;12.85;8.38;;;;;;;6.61;81.19;99808.56;4447048;32;34045;-76
2022/12/06 07:03:27;;;;;;;15.98;9.98;;;;;;;6.50;82.44;99794.78;4442438;32;33919;-77
2022/12/06 07:06:00;;;;;;;14.73;9.48;;;;;;;6.84;80.07;99783.66;4454086;32;34488;-80
2022/12/06 07:08:30;;;;;;;14.40;8.98;;;;;;;6.44;83.51;99781.38;4468654;32;33916;-80
2022/12/06 07:10:57;;;;;;;13.02;8.05;;;;;;;6.61;81.64;99787.84;4468212;32;35032;-80
2022/12/06 07:13:27;;;;;;;11.85;7.47;;;;;;;7.18;79.48;99790.34;4454000;32;33985;-83
2022/12/06 07:15:55;;;;;;;11.75;7.85;;;;;;;7.13;80.00;99796.44;4467620;32;33463;-79
2022/12/06 07:18:23;;;;;;;10.15;6.72;;;;;;;7.15;79.97;99790.81;4468278;32;34441;-82
2022/12/06 07:20:58;;;;;;;10.25;6.80;;;;;;;7.07;80.13;99791.94;4455488;32;33981;-76
2022/12/06 07:23:26;;;;;;;9.55;6.18;;;;;;;6.94;80.01;99802.87;4442195;32;33689;-77
2022/12/06 07:26:05;;;;;;;13.27;7.80;;;;;;;7.29;79.33;99797.69;4452521;32;34204;-79
2022/12/06 07:28:37;;;;;;;12.15;7.85;;;;;;;6.58;80.58;99785.56;4451396;32;34597;-76
2022/12/06 07:31:13;;;;;;;12.68;6.72;;;;;;;6.80;80.00;99791.38;4438450;32;34706;-83
2022/12/06 07:33:44;;;;;;;15.50;8.20;;;;;;;7.06;78.85;99795.69;4438536;32;33576;-77
2022/12/06 07:36:12;;;;;;;13.80;7.85;;;;;;;6.46;81.36;99787.37;4441065;32;32768;-77
2022/12/06 07:38:41;;;;;;;12.20;8.57;;;;;;;6.82;79.94;99791.16;4454778;32;33798;-77
2022/12/06 07:46:46;;;;;;;23.50;13.88;;;;;;;7.35;76.75;99799.47;4456911;32;33347;-77
2022/12/06 07:49:14;;;;;;;16.98;9.38;;;;;;;7.67;75.09;99803.87;4469123;32;34706;-77
2022/12/06 07:51:43;;;;;;;11.02;7.40;;;;;;;7.73;75.31;99811.88;4455451;32;33828;-78
2022/12/06 07:54:10;;;;;;;12.73;7.75;;;;;;;7.46;76.50;99818.69;4454148;32;34807;-82
2022/12/06 07:56:38;;;;;;;8.02;6.22;;;;;;;7.00;79.13;99810.06;4468935;32;33574;-76
2022/12/06 07:59:06;;;;;;;8.65;5.78;;;;;;;7.06;77.75;99819.97;4468759;32;33564;-78
2022/12/06 08:01:33;;;;;;;8.07;5.85;;;;;;;7.00;78.25;99818.16;4467640;32;35146;-78
2022/12/06 08:04:02;;;;;;;9.77;5.40;;;;;;;7.01;78.93;99813.59;4468551;32;34666;-78
2022/12/06 08:06:31;;;;;;;6.03;4.40;;;;;;;6.96;78.45;99816.94;4454872;32;33876;-76
2022/12/06 08:08:58;;;;;;;8.40;5.12;;;;;;;7.10;78.21;99817.63;4467827;32;34674;-76
2022/12/06 08:11:27;;;;;;;8.25;4.97;;;;;;;7.36;76.19;99820.03;4468722;32;34166;-78
2022/12/06 08:13:54;;;;;;;6.00;4.32;;;;;;;7.32;75.94;99826.09;4467981;32;34690;-77
2022/12/06 08:16:22;;;;;;;6.55;4.12;;;;;;;7.15;77.75;99834.00;4454673;32;33518;-78
2022/12/06 08:18:51;;;;;;;7.55;3.75;;;;;;;6.95;77.67;99831.47;4468568;32;33876;-79
2022/12/06 08:21:18;;;;;;;7.60;4.47;;;;;;;6.65;78.28;99836.72;4468563;32;34345;-78
2022/12/06 08:23:46;;;;;;;16.83;8.75;;;;;;;6.35;80.22;99838.22;4468664;32;34586;-78
2022/12/06 08:26:15;;;;;;;16.70;8.82;;;;;;;6.93;76.61;99829.03;4467963;32;33500;-82
2022/12/06 08:28:42;;;;;;;19.37;10.30;;;;;;;7.15;77.10;99826.72;4453243;32;33823;-80
2022/12/06 08:31:12;;;;;;;372.80;196.00;;;;;;;7.23;79.02;99825.56;4453196;32;33648;-80
2022/12/06 08:33:40;;;;;;;136.02;64.32;;;;;;;7.96;77.09;99830.03;4455620;32;34654;-81
2022/12/06 08:36:12;;;;;;;13.00;5.95;;;;;;;8.04;73.86;99830.78;4469635;32;33676;-80
2022/12/06 08:38:39;;;;;;;36.75;18.73;;;;;;;8.04;73.29;99830.78;4470371;32;33579;-81
2022/12/06 08:41:54;;;;;;;3.87;2.70;;;;;;;8.35;72.93;99830.50;4456364;32;34796;-82
2022/12/06 08:43:57;;;;;;;13.85;8.32;;;;;;;7.72;73.68;99818.31;4457943;32;34135;-85
2022/12/06 08:46:25;;;;;;;77.70;59.97;;;;;;;8.36;74.04;99821.34;4454591;32;33543;-80
2022/12/06 08:48:53;;;;;;;14.27;11.80;;;;;;;8.42;72.49;99835.84;4440977;32;33713;-80
2022/12/06 08:51:21;;;;;;;4.75;3.60;;;;;;;8.59;70.95;99833.28;4429109;32;34916;-81
2022/12/06 08:53:48;;;;;;;3.62;2.53;;;;;;;7.81;73.10;99848.53;4461717;32;34848;-81
2022/12/06 08:56:16;;;;;;;5.20;4.15;;;;;;;7.25;75.54;99838.84;4447608;32;32839;-78
2022/12/06 08:58:43;;;;;;;6.12;4.60;;;;;;;7.58;74.20;99831.19;4470100;32;33852;-76
2022/12/06 09:01:16;;;;;;;5.30;3.70;;;;;;;7.98;72.03;99837.94;4456026;32;33468;-79
2022/12/06 09:03:44;;;;;;;6.90;4.80;;;;;;;7.79;74.24;99827.16;4455608;32;34704;-80
2022/12/06 09:06:11;;;;;;;5.18;3.40;;;;;;;8.01;73.98;99832.06;4470242;32;34060;-82
2022/12/06 09:08:39;;;;;;;7.45;4.43;;;;;;;7.37;75.28;99820.84;4470408;32;33579;-79
2022/12/06 09:11:08;;;;;;;103.60;66.50;;;;;;;7.47;75.54;99828.41;4455466;32;34336;-77
2022/12/06 09:13:36;;;;;;;8.65;5.78;;;;;;;7.74;75.50;99824.31;4470109;32;33960;-77
2022/12/06 09:16:09;;;;;;;8.40;5.12;;;;;;;8.13;74.74;99826.69;4469815;32;34194;-77
2022/12/06 09:18:37;;;;;;;7.62;4.70;;;;;;;8.09;74.16;99820.09;4456119;32;34629;-75
2022/12/06 09:21:06;;;;;;;6.05;4.20;;;;;;;8.46;73.19;99828.09;4456246;32;34128;-76
2022/12/06 09:23:34;;;;;;;5.18;4.20;;;;;;;8.69;74.21;99825.41;4440665;32;34037;-76
2022/12/06 09:26:03;;;;;;;4.82;3.92;;;;;;;9.20;73.62;99829.28;4453435;32;33373;-77
2022/12/06 09:28:33;;;;;;;4.60;2.40;;;;;;;9.59;70.86;99829.53;4439341;32;32723;-79
2022/12/06 09:31:01;;;;;;;6.87;3.47;;;;;;;9.27;70.46;99826.44;4453025;32;34123;-89
2022/12/06 09:33:29;;;;;;;3.95;2.83;;;;;;;9.49;69.75;99828.50;4454993;32;34815;-77
2022/12/06 09:35:58;;;;;;;3.62;2.67;;;;;;;9.06;71.68;99836.00;4454088;32;34667;-85
2022/12/06 09:38:27;;;;;;;5.60;4.68;;;;;;;8.80;72.55;99834.59;4427872;32;34066;-76
2022/12/06 09:41:36;;;;;;;5.97;4.32;;;;;;;8.92;71.26;99835.41;4453450;32;34289;-79
2022/12/06 09:44:34;;;;;;;4.22;2.47;;;;;;;9.01;71.24;99844.81;4453211;32;34244;-77
2022/12/06 09:47:36;;;;;;;3.90;3.00;;;;;;;9.19;69.80;99835.72;4453494;32;34415;-76
2022/12/06 09:50:07;;;;;;;4.07;2.60;;;;;;;8.37;71.29;99820.28;4454514;32;33820;-77
2022/12/06 09:52:54;;;;;;;4.57;2.42;;;;;;;8.61;70.52;99823.84;4436103;32;34250;-72
2022/12/06 09:55:24;;;;;;;3.75;2.17;;;;;;;7.78;73.30;99830.91;4424474;32;33855;-75
2022/12/06 09:58:20;;;;;;;4.78;3.45;;;;;;;7.90;73.78;99827.44;4439201;32;33433;-72
2022/12/06 10:01:15;;;;;;;3.85;2.10;;;;;;;7.29;74.58;99821.16;4425608;32;33533;-75
2022/12/06 10:03:55;;;;;;;2.55;1.80;;;;;;;7.79;73.76;99819.06;4452516;32;34875;-79
2022/12/06 10:06:24;;;;;;;2.20;1.75;;;;;;;7.86;74.07;99816.28;4440629;32;33974;-77
2022/12/06 10:09:10;;;;;;;4.07;2.00;;;;;;;7.96;71.58;99810.31;4440386;32;34036;-75
2022/12/06 10:12:05;;;;;;;2.28;1.67;;;;;;;8.33;70.52;99812.88;4454522;32;34005;-77
2022/12/06 10:15:08;;;;;;;2.65;1.70;;;;;;;7.49;73.43;99805.53;4433406;32;34250;-76
2022/12/06 10:18:11;;;;;;;2.53;1.80;;;;;;;7.08;73.30;99807.06;4445898;32;33980;-76
2022/12/06 10:20:44;;;;;;;4.32;2.80;;;;;;;7.51;73.65;99803.44;4430715;32;33410;-73
2022/12/06 10:23:32;;;;;;;5.45;3.35;;;;;;;7.56;73.71;99798.19;4457917;32;34459;-80
2022/12/06 10:26:07;;;;;;;6.32;3.58;;;;;;;7.34;75.12;99787.06;4443424;32;35182;-78
2022/12/06 10:29:01;;;;;;;5.50;2.95;;;;;;;7.96;73.43;99789.50;4470224;32;34657;-79
2022/12/06 10:31:37;;;;;;;3.53;2.78;;;;;;;8.56;70.88;99787.78;4470104;32;34255;-78
2022/12/06 10:34:13;;;;;;;2.85;2.42;;;;;;;9.03;69.83;99791.28;4467390;32;33894;-78
2022/12/06 10:36:50;;;;;;;3.42;2.25;;;;;;;8.80;68.47;99772.37;4456346;32;34317;-81
2022/12/06 10:39:43;;;;;;;3.90;2.10;;;;;;;7.75;73.67;99763.88;4429779;32;32934;-79
2022/12/06 10:42:33;;;;;;;4.07;2.50;;;;;;;8.37;70.82;99777.03;4469751;32;34400;-81
2022/12/06 10:48:14;;;;;;;5.10;3.15;;;;;;;8.55;67.09;99778.84;4470181;32;35102;-79
2022/12/06 10:50:43;;;;;;;3.60;2.50;;;;;;;9.16;65.97;99776.66;4465630;32;33936;-75
2022/12/06 10:53:16;;;;;;;6.32;2.90;;;;;;;8.45;68.15;99778.59;4437755;32;33123;-83
2022/12/06 10:55:49;;;;;;;3.60;2.50;;;;;;;8.88;68.27;99777.41;4454523;32;33682;-80
2022/12/06 10:58:31;;;;;;;3.30;2.50;;;;;;;8.74;67.88;99768.72;4440201;32;35128;-80
2022/12/06 11:01:02;;;;;;;3.37;2.22;;;;;;;9.26;67.41;99764.41;4453986;32;33947;-79
2022/12/06 11:03:38;;;;;;;4.37;3.22;;;;;;;9.00;66.64;99772.78;4439881;32;33261;-84
2022/12/06 11:06:09;;;;;;;3.83;2.40;;;;;;;9.27;67.21;99769.59;4450436;32;34226;-80
2022/12/06 11:08:41;;;;;;;3.05;2.40;;;;;;;9.21;66.01;99765.94;4454203;32;33993;-77
2022/12/06 11:11:16;;;;;;;4.78;3.30;;;;;;;8.73;67.06;99760.84;4427684;32;34635;-80
2022/12/06 11:13:52;;;;;;;3.42;2.37;;;;;;;9.34;65.55;99755.91;4453837;32;33421;-80
2022/12/06 11:16:22;;;;;;;3.67;2.60;;;;;;;8.58;67.61;99750.50;4452681;32;34472;-79
2022/12/06 11:18:50;;;;;;;3.25;2.20;;;;;;;7.84;70.44;99758.13;4454149;32;34211;-80
2022/12/06 11:21:38;;;;;;;2.83;2.15;;;;;;;8.19;70.73;99750.91;4453883;32;33993;-79
2022/12/06 11:24:22;;;;;;;2.95;2.40;;;;;;;7.79;70.00;99754.22;4449272;32;33110;-80
2022/12/06 11:27:08;;;;;;;3.40;2.10;;;;;;;7.37;71.47;99765.00;4455628;32;33488;-81
2022/12/06 11:29:36;;;;;;;3.15;2.12;;;;;;;7.21;71.46;99749.41;4455680;32;34096;-81
2022/12/06 11:32:06;;;;;;;3.67;2.10;;;;;;;8.06;70.31;99755.72;4469495;32;34050;-80
2022/12/06 11:34:49;;;;;;;3.30;2.20;;;;;;;7.18;69.78;99755.28;4469668;32;34470;-82
2022/12/06 11:37:20;;;;;;;2.50;2.00;;;;;;;7.42;70.89;99745.41;4459682;32;33557;-78
2022/12/06 11:39:50;;;;;;;3.05;1.90;;;;;;;7.77;69.88;99744.72;4453908;32;34101;-79
2022/12/06 11:42:23;;;;;;;2.37;1.80;;;;;;;7.47;70.84;99747.41;4441421;32;33600;-79
2022/12/06 11:44:58;;;;;;;2.12;1.50;;;;;;;7.28;71.77;99752.88;4468286;32;33477;-80
2022/12/06 11:47:25;;;;;;;1.80;1.30;;;;;;;8.19;69.71;99750.09;4441446;32;33334;-76
2022/12/06 11:49:54;;;;;;;1.70;1.50;;;;;;;8.82;67.07;99746.72;4468397;32;33781;-76
2022/12/06 11:52:43;;;;;;;2.42;1.50;;;;;;;8.44;65.32;99747.19;4453730;32;34723;-71
2022/12/06 11:55:20;;;;;;;2.22;1.50;;;;;;;8.68;66.06;99742.59;4453298;32;33578;-69
2022/12/06 11:57:53;;;;;;;2.50;1.60;;;;;;;8.93;64.79;99739.63;4467980;32;34712;-71
2022/12/06 12:00:23;;;;;;;2.37;1.60;;;;;;;8.75;66.13;99734.37;4467286;32;35051;-79
2022/12/06 12:02:54;;;;;;;2.12;1.55;;;;;;;8.90;66.16;99740.13;4453396;32;33967;-77
2022/12/06 12:05:24;;;;;;;2.90;1.60;;;;;;;9.26;64.68;99740.84;4454235;32;33553;-78
2022/12/06 12:08:01;;;;;;;2.62;1.90;;;;;;;8.79;66.00;99743.66;4467536;32;33891;-76
2022/12/06 12:10:42;;;;;;;2.35;1.60;;;;;;;8.99;65.28;99744.09;4453065;32;35046;-85
2022/12/06 12:16:01;;;;;;;2.95;2.10;;;;;;;9.74;61.45;99744.19;4467778;32;34118;-76
2022/12/06 12:18:32;;;;;;;2.97;1.70;;;;;;;8.10;65.12;99746.91;4453811;32;33730;-76
2022/12/06 12:21:00;;;;;;;1.98;1.52;;;;;;;9.08;63.04;99752.69;4467742;32;34197;-75
2022/12/06 12:23:31;;;;;;;2.42;1.60;;;;;;;9.44;62.22;99764.25;4467051;32;34277;-76
2022/12/06 12:26:15;;;;;;;2.03;1.50;;;;;;;8.87;62.42;99751.41;4452356;32;33503;-76
2022/12/06 12:28:45;;;;;;;2.83;1.70;;;;;;;9.63;61.73;99741.31;4467559;32;33903;-75
2022/12/06 12:31:19;;;;;;;2.85;1.67;;;;;;;8.74;63.58;99755.19;4453635;32;34015;-75